Huvudsida
METAR-TAF:

METAR-TAF

Flygplatser :

Kuopio flygplats

Kuopio, Finland

latitud: 63-01N, longitud: 027-48E, höjd: 98 m

Aktuellt väderrapport

Denna rapport gjordes för 39 minuter sedan, klockan 03:20 UTC
Vind 12 kt från sydväst
Temperatur 3°C
Fuktighet 81%
Tryck 986 hPa
Sikt 10 km eller mer
Brutna moln på en höjd av 1700 ft

METAR: EFKU 190320Z AUTO 23012KT 9999 BKN017 03/00 Q0986

Tid: 05:59 (03:59 UTC)

Väderprognos

Denna rapport gjordes för 1 timme och 34 minuter sedan, klockan 02:25 UTC
Prognos gäller från 19 kl. 03 UTC till 20 kl. 03 UTC
Vind 11 kt från sydväst
Sikt 10 km eller mer
Brutna moln på en höjd av 1500 ft
Temporärt
från 19 kl. 03 UTC till 19 kl. 10 UTC
Brutna moln på en höjd av 1200 ft
Blir
från 19 kl. 12 UTC till 19 kl. 14 UTC
Vind 6 kt från väst/nordväst
Sannolikhet 40%
från 19 kl. 15 UTC till 19 kl. 24 UTC
Brutna moln på en höjd av 800 ft

TAF: EFKU 190225Z 1903/2003 22011KT 9999 BKN015 TEMPO 1903/1910 BKN012 BECMG 1912/1914 29006KT PROB40 1915/1924 BKN008

Aktuella väderrapporter och prognoser från 4000 flygplatser (METAR- och TAF-rapporter).

De tillgängliga stationerna syns som gula och röda prickar på kartan.

För musen över prickarna för att se namnen på stationerna.

Klicka sedan för att få väderrapporter och prognoser.

För att ändra kartan: Klicka på de gröna knapparna med ett svart kors på för att zooma in; den gröna knappen med ett streck på för att zooma ut; eller på de gröna pilarna för angränsande kartor.


METAR-TAF: